Time;durP1;ratioP1;P1;durP2;ratioP2;P2;SDS_P1;SDS_P2;PMS_P1;PMS_P2;Temp;Humidity;BMP_temperature;BMP_pressure;BME280_temperature;BME280_humidity;BME280_pressure;Samples;Min_cycle;Max_cycle;Signal;HPM_P1;HPM_P2
2023/10/31 00:19:58;;;;;;;5.70;3.90;;;;;;;21.74;51.33;99385.63;40291540;29;20085;-75
2023/10/31 00:39:59;;;;;;;6.35;4.13;;;;;;;21.74;51.25;99340.81;40277107;29;20052;-75
2023/10/31 00:59:59;;;;;;;6.68;4.45;;;;;;;21.72;51.26;99321.69;40288852;29;20080;-75
2023/10/31 01:20:00;;;;;;;5.85;4.22;;;;;;;21.62;51.66;99283.19;40306800;29;20061;-75
2023/10/31 01:40:00;;;;;;;4.60;4.00;;;;;;;21.68;51.52;99275.53;40323697;29;20049;-77
2023/10/31 02:00:01;;;;;;;4.70;4.20;;;;;;;21.68;51.39;99251.00;40316863;29;20049;-74
2023/10/31 02:20:01;;;;;;;5.18;4.38;;;;;;;21.66;51.34;99234.53;40297599;29;20045;-76
2023/10/31 02:40:03;;;;;;;6.47;4.57;;;;;;;21.54;51.46;99218.88;40315078;29;20056;-75
2023/10/31 03:00:04;;;;;;;7.50;4.70;;;;;;;21.53;51.61;99187.44;40298963;29;20053;-78
2023/10/31 03:20:05;;;;;;;6.60;4.55;;;;;;;21.61;51.58;99232.34;40277192;29;20499;-77
2023/10/31 03:40:09;;;;;;;5.13;4.47;;;;;;;21.44;51.69;99226.03;40303740;29;20190;-75
2023/10/31 04:00:11;;;;;;;6.95;4.65;;;;;;;21.56;51.83;99253.84;40289752;29;20045;-75
2023/10/31 04:20:11;;;;;;;7.13;4.65;;;;;;;21.54;51.89;99229.44;40272364;29;20104;-73
2023/10/31 04:40:12;;;;;;;5.95;4.72;;;;;;;21.55;51.90;99188.94;40310992;29;20407;-76
2023/10/31 05:00:13;;;;;;;6.35;4.57;;;;;;;21.47;51.97;99156.44;40325846;29;20499;-77
2023/10/31 05:20:13;;;;;;;4.60;4.20;;;;;;;21.47;52.30;99148.53;40301547;29;20064;-74
2023/10/31 05:40:16;;;;;;;5.43;4.60;;;;;;;21.46;52.05;99210.94;40302018;29;20057;-75
2023/10/31 06:00:16;;;;;;;7.70;4.70;;;;;;;21.62;52.21;99177.84;40293446;29;20050;-76
2023/10/31 06:20:17;;;;;;;8.85;4.80;;;;;;;;;;40301800;29;20046;-76
2023/10/31 06:40:17;;;;;;;7.72;4.50;;;;;;;21.65;52.13;99169.63;40303003;29;20059;-83
2023/10/31 07:00:18;;;;;;;5.18;4.13;;;;;;;21.65;52.00;99182.81;40296512;29;20045;-77
2023/10/31 07:20:18;;;;;;;11.38;4.75;;;;;;;21.65;51.88;99169.63;40282641;29;20443;-71
2023/10/31 07:40:19;;;;;;;12.52;4.68;;;;;;;21.49;52.97;99163.22;40290415;29;20049;-75
2023/10/31 08:00:19;;;;;;;12.95;4.68;;;;;;;21.54;52.74;99158.31;40275766;29;20048;-76
2023/10/31 08:20:20;;;;;;;11.43;4.82;;;;;;;21.58;53.17;99159.72;40326781;29;20080;-72
2023/10/31 08:40:20;;;;;;;5.97;4.28;;;;;;;21.35;51.91;99117.19;40354215;29;20521;-74
2023/10/31 09:00:20;;;;;;;5.07;3.17;;;;;;;21.11;45.43;99121.22;40325376;29;20057;-80
2023/10/31 09:20:21;;;;;;;5.47;2.65;;;;;;;20.67;43.22;99062.38;40314135;29;20075;-79
2023/10/31 09:40:21;;;;;;;4.75;2.58;;;;;;;21.18;44.22;99057.44;40287974;29;20049;-83
2023/10/31 10:00:22;;;;;;;7.65;3.00;;;;;;;21.23;43.63;99032.31;40287624;29;20070;-83
2023/10/31 10:20:22;;;;;;;4.57;2.38;;;;;;;21.28;43.33;98966.06;40289762;29;20411;-82
2023/10/31 10:40:23;;;;;;;5.63;2.30;;;;;;;21.25;42.23;98909.28;40275728;29;20575;-79
2023/10/31 11:00:24;;;;;;;6.85;1.98;;;;;;;21.44;40.26;98888.97;40268922;29;20410;-84
2023/10/31 11:20:29;;;;;;;6.30;2.35;;;;;;;21.44;42.41;98825.78;40292976;29;20482;-81
2023/10/31 11:40:29;;;;;;;5.57;1.92;;;;;;;21.03;41.71;98762.41;40279683;29;20056;-81
2023/10/31 12:00:30;;;;;;;7.35;2.40;;;;;;;21.30;43.53;98777.19;40269180;29;20053;-79
2023/10/31 12:20:32;;;;;;;6.43;3.28;;;;;;;21.45;45.18;98732.63;40254391;29;20056;-78
2023/10/31 12:40:33;;;;;;;7.90;3.97;;;;;;;21.38;48.39;99076.53;40267149;29;20113;-78
2023/10/31 13:00:35;;;;;;;9.15;3.42;;;;;;;21.48;49.60;98993.00;40290388;29;20084;-77
2023/10/31 13:20:36;;;;;;;7.28;3.67;;;;;;;21.48;49.82;99005.34;40293941;29;20045;-78
2023/10/31 13:40:39;;;;;;;7.93;3.85;;;;;;;20.91;49.42;99017.91;40308201;29;20058;-85
2023/10/31 14:00:40;;;;;;;5.95;3.08;;;;;;;20.90;50.15;99091.75;40316368;29;20521;-83
2023/10/31 14:20:41;;;;;;;4.85;2.65;;;;;;;21.03;49.85;98823.78;40339325;29;20049;-86
2023/10/31 14:40:41;;;;;;;5.35;1.98;;;;;;;21.41;50.43;98945.41;40337947;29;20041;-85
2023/10/31 15:00:42;;;;;;;5.70;2.00;;;;;;;21.29;49.85;98991.41;40334524;29;20056;-86
2023/10/31 15:20:43;;;;;;;1.20;0.98;;;;;;;20.38;49.18;99137.75;40319161;29;20056;-84
2023/10/31 15:40:43;;;;;;;0.90;0.90;;;;;;;20.11;49.03;99191.94;40292972;29;21467;-84
2023/10/31 16:00:44;;;;;;;3.75;1.60;;;;;;;19.90;49.07;99222.81;40264888;29;20050;-86
2023/10/31 16:20:46;;;;;;;7.72;1.67;;;;;;;20.18;47.81;99236.88;40302917;29;20056;-85
2023/10/31 16:40:47;;;;;;;1.00;0.88;;;;;;;20.06;47.88;99262.47;40325380;29;20041;-84
2023/10/31 17:00:47;;;;;;;0.80;0.80;;;;;;;20.07;47.75;99310.63;40338458;29;20048;-86
2023/10/31 17:20:48;;;;;;;1.80;1.10;;;;;;;19.28;47.93;99355.03;40320386;29;20045;-78
2023/10/31 17:40:49;;;;;;;6.40;1.25;;;;;;;19.63;47.33;99397.63;40302189;29;20045;-78
2023/10/31 18:00:50;;;;;;;6.25;1.00;;;;;;;19.27;47.33;99403.22;40298389;29;20049;-77
2023/10/31 18:20:51;;;;;;;0.98;0.80;;;;;;;18.94;46.36;99370.19;40279794;29;20058;-79
2023/10/31 18:40:52;;;;;;;1.05;0.95;;;;;;;19.38;45.73;99378.69;40304512;29;20049;-78
2023/10/31 19:00:53;;;;;;;5.60;0.90;;;;;;;19.22;46.21;99478.09;40296672;29;20061;-79
2023/10/31 19:20:54;;;;;;;4.50;1.20;;;;;;;20.10;45.63;99470.66;40277352;29;20074;-77
2023/10/31 19:40:55;;;;;;;3.67;1.10;;;;;;;20.39;46.75;99515.41;40289848;29;20522;-81
2023/10/31 20:01:00;;;;;;;4.63;1.20;;;;;;;20.44;47.86;99509.75;40262902;29;20045;-75
2023/10/31 20:21:01;;;;;;;5.35;1.50;;;;;;;20.23;47.42;99534.31;40266545;29;20450;-75
2023/10/31 20:41:02;;;;;;;21.02;2.00;;;;;;;20.52;47.52;99606.38;40291615;29;20045;-77
2023/10/31 21:01:03;;;;;;;11.00;1.63;;;;;;;20.33;47.23;99649.22;40276027;29;20118;-85
2023/10/31 21:21:04;;;;;;;5.13;1.33;;;;;;;20.31;47.51;99631.78;40290775;29;20041;-88
2023/10/31 21:41:06;;;;;;;8.02;1.23;;;;;;;20.74;46.37;99681.69;40266086;29;20049;-78
2023/10/31 22:01:06;;;;;;;5.82;1.33;;;;;;;20.95;46.72;99705.28;40252938;29;20045;-72
2023/10/31 22:21:11;;;;;;;4.85;1.48;;;;;;;21.11;48.29;99742.44;40235159;29;20064;-73
2023/10/31 22:41:20;;;;;;;6.97;1.67;;;;;;;21.17;48.14;99756.06;40236631;29;20048;-72
2023/10/31 23:01:22;;;;;;;10.63;2.15;;;;;;;21.02;50.89;99752.94;40262618;29;20148;-73
2023/10/31 23:21:22;;;;;;;5.40;2.17;;;;;;;21.08;49.80;99779.56;40276976;29;20463;-72
2023/10/31 23:41:23;;;;;;;7.43;2.20;;;;;;;21.12;50.26;99817.00;40263983;29;20060;-72
